createdAt,value
2018-01-22T00:01:40.675Z,13.80
2018-01-22T00:04:08.207Z,9.50
2018-01-22T00:06:35.752Z,13.50
2018-01-22T00:09:03.267Z,10.40
2018-01-22T00:11:30.807Z,12.50
2018-01-22T00:13:58.318Z,11.90
2018-01-22T00:16:26.639Z,9.83
2018-01-22T00:18:54.143Z,6.70
2018-01-22T00:21:21.708Z,8.50
2018-01-22T00:23:49.224Z,7.27
2018-01-22T00:26:16.737Z,9.23
2018-01-22T00:28:44.282Z,11.03
2018-01-22T00:31:11.804Z,7.33
2018-01-22T00:33:39.347Z,6.40
2018-01-22T00:36:06.858Z,8.37
2018-01-22T00:38:34.407Z,5.00
2018-01-22T00:41:01.923Z,7.57
2018-01-22T00:43:29.474Z,3.90
2018-01-22T00:45:56.978Z,3.63
2018-01-22T00:48:25.280Z,6.03
2018-01-22T00:50:52.795Z,4.37
2018-01-22T00:53:20.331Z,3.37
2018-01-22T00:55:47.832Z,3.50
2018-01-22T00:58:15.416Z,3.87
2018-01-22T01:00:42.914Z,6.00
2018-01-22T01:03:10.437Z,5.47
2018-01-22T01:05:37.974Z,4.20
2018-01-22T01:08:06.251Z,3.73
2018-01-22T01:10:33.804Z,4.77
2018-01-22T01:13:01.323Z,3.00
2018-01-22T01:15:28.869Z,4.37
2018-01-22T01:17:57.135Z,4.07
2018-01-22T01:20:24.671Z,5.50
2018-01-22T01:22:52.181Z,4.10
2018-01-22T01:25:19.720Z,6.17
2018-01-22T01:27:47.227Z,9.13
2018-01-22T01:30:14.787Z,4.80
2018-01-22T01:32:42.326Z,4.07
2018-01-22T01:35:09.871Z,7.30
2018-01-22T01:37:38.149Z,6.63
2018-01-22T01:40:05.707Z,6.63
2018-01-22T01:42:33.211Z,6.57
2018-01-22T01:45:00.722Z,4.20
2018-01-22T01:47:28.264Z,11.03
2018-01-22T01:49:55.790Z,5.73
2018-01-22T01:52:23.334Z,5.23
2018-01-22T01:54:50.835Z,7.73
2018-01-22T01:57:18.378Z,4.50
2018-01-22T01:59:46.646Z,5.40
2018-01-22T02:02:14.188Z,2.93
2018-01-22T02:04:42.468Z,6.30
2018-01-22T02:07:10.002Z,5.67
2018-01-22T02:09:37.512Z,7.53
2018-01-22T02:12:05.056Z,7.73
2018-01-22T02:14:32.579Z,9.70
2018-01-22T02:17:00.856Z,6.80
2018-01-22T02:19:28.395Z,6.40
2018-01-22T02:21:55.905Z,3.30
2018-01-22T02:24:24.218Z,5.33
2018-01-22T02:26:51.716Z,5.00
2018-01-22T02:29:19.263Z,5.80
2018-01-22T02:31:46.779Z,6.77
2018-01-22T02:34:14.319Z,6.33
2018-01-22T02:36:42.308Z,5.80
2018-01-22T02:39:09.859Z,4.67
2018-01-22T02:41:37.367Z,6.03
2018-01-22T02:44:04.922Z,4.93
2018-01-22T02:46:32.429Z,6.00
2018-01-22T02:48:59.936Z,6.33
2018-01-22T02:51:27.503Z,5.20
2018-01-22T02:53:55.891Z,5.90
2018-01-22T02:56:24.203Z,4.93
2018-01-22T02:58:51.708Z,4.93
2018-01-22T03:01:19.259Z,4.20
2018-01-22T03:03:46.777Z,5.90
2018-01-22T03:06:14.325Z,6.57
2018-01-22T03:08:41.860Z,6.47
2018-01-22T03:11:09.413Z,5.30
2018-01-22T03:13:37.703Z,5.90
2018-01-22T03:16:06.015Z,4.40
2018-01-22T03:18:33.529Z,3.53
2018-01-22T03:21:01.039Z,6.60
2018-01-22T03:23:28.588Z,3.90
2018-01-22T03:25:56.099Z,3.87
2018-01-22T03:28:23.644Z,3.10
2018-01-22T03:30:51.917Z,6.23
2018-01-22T03:33:19.463Z,5.43
2018-01-22T03:35:46.980Z,3.50
2018-01-22T03:38:15.256Z,4.00
2018-01-22T03:40:42.816Z,3.73
2018-01-22T03:43:10.331Z,2.80
2018-01-22T03:45:37.876Z,3.10
2018-01-22T03:48:06.152Z,2.53
2018-01-22T03:50:33.707Z,2.20
2018-01-22T03:53:01.220Z,3.70
2018-01-22T03:55:29.595Z,2.80
2018-01-22T03:57:57.064Z,2.90
2018-01-22T04:00:24.624Z,3.23
2018-01-22T04:02:52.137Z,2.80
2018-01-22T04:05:19.638Z,2.20
2018-01-22T04:07:47.196Z,3.10
2018-01-22T04:10:14.699Z,3.93
2018-01-22T04:12:42.312Z,3.00
2018-01-22T04:15:10.588Z,4.50
2018-01-22T04:17:38.150Z,3.60
2018-01-22T04:20:05.660Z,3.03
2018-01-22T04:22:33.204Z,3.33
2018-01-22T04:25:00.719Z,2.77
2018-01-22T04:27:28.279Z,2.40
2018-01-22T04:29:55.787Z,2.80
2018-01-22T04:32:23.304Z,2.80
2018-01-22T04:34:50.842Z,3.13
2018-01-22T04:37:18.357Z,2.57
2018-01-22T04:39:46.664Z,2.60
2018-01-22T04:42:14.172Z,3.00
2018-01-22T04:44:41.748Z,2.80
2018-01-22T04:47:09.260Z,2.90
2018-01-22T04:49:37.573Z,2.60
2018-01-22T04:52:05.085Z,2.43
2018-01-22T04:54:32.634Z,2.90
2018-01-22T04:57:00.136Z,2.80
2018-01-22T04:59:28.473Z,3.53
2018-01-22T05:01:55.988Z,5.70
2018-01-22T05:04:23.547Z,2.83
2018-01-22T05:06:51.058Z,2.13
2018-01-22T05:09:18.560Z,1.60
2018-01-22T05:11:46.111Z,2.53
2018-01-22T05:14:14.390Z,3.70
2018-01-22T05:16:43.447Z,9.43
2018-01-22T05:19:10.965Z,2.00
2018-01-22T05:21:38.549Z,1.77
2018-01-22T05:24:06.830Z,2.13
2018-01-22T05:26:35.145Z,2.00
2018-01-22T05:29:02.658Z,4.23
2018-01-22T05:31:30.201Z,1.90
2018-01-22T05:33:57.727Z,1.90
2018-01-22T05:36:26.060Z,1.87
2018-01-22T05:38:53.583Z,1.83
2018-01-22T05:41:21.092Z,6.00
2018-01-22T05:43:48.642Z,2.47
2018-01-22T05:46:18.812Z,2.70
2018-01-22T05:48:46.366Z,2.73
2018-01-22T05:51:13.873Z,2.43
2018-01-22T05:53:41.421Z,3.00
2018-01-22T05:56:08.939Z,2.97
2018-01-22T05:58:36.488Z,2.97
2018-01-22T06:01:04.005Z,3.30
2018-01-22T06:03:32.316Z,2.83
2018-01-22T06:06:00.851Z,2.87
2018-01-22T06:08:28.414Z,2.67
2018-01-22T06:10:55.923Z,7.17
2018-01-22T06:13:23.442Z,3.60
2018-01-22T06:15:51.001Z,3.77
2018-01-22T06:18:18.941Z,8.10
2018-01-22T06:20:46.500Z,4.00
2018-01-22T06:23:14.019Z,3.40
2018-01-22T06:25:42.327Z,4.07
2018-01-22T06:28:09.840Z,4.17
2018-01-22T06:30:37.389Z,4.40
2018-01-22T06:33:04.908Z,5.37
2018-01-22T06:35:32.729Z,4.30
2018-01-22T06:38:00.241Z,3.70
2018-01-22T06:40:27.776Z,4.63
2018-01-22T06:42:55.320Z,5.87
2018-01-22T06:45:22.848Z,3.60
2018-01-22T06:47:50.420Z,5.83
2018-01-22T06:50:17.953Z,4.87
2018-01-22T06:52:45.515Z,6.37
2018-01-22T06:55:13.052Z,6.63
2018-01-22T06:57:41.019Z,5.37
2018-01-22T07:00:08.537Z,5.83
2018-01-22T07:02:36.126Z,5.00
2018-01-22T07:05:03.680Z,5.63
2018-01-22T07:07:31.198Z,4.87
2018-01-22T07:09:58.739Z,5.10
2018-01-22T07:12:26.256Z,5.67
2018-01-22T07:14:53.808Z,4.93
2018-01-22T07:17:22.088Z,5.20
2018-01-22T07:19:49.640Z,5.80
2018-01-22T07:22:17.163Z,6.50
2018-01-22T07:24:44.718Z,5.13
2018-01-22T07:27:12.953Z,5.57
2018-01-22T07:29:41.268Z,5.20
2018-01-22T07:32:08.815Z,5.10
2018-01-22T07:34:36.348Z,6.40
2018-01-22T07:37:03.896Z,6.60
2018-01-22T07:39:31.408Z,6.47
2018-01-22T07:41:58.991Z,9.30
2018-01-22T07:44:27.275Z,5.80
2018-01-22T07:46:55.613Z,6.60
2018-01-22T07:49:23.138Z,6.23
2018-01-22T07:51:50.699Z,6.53
2018-01-22T07:54:18.208Z,5.70
2018-01-22T07:56:45.936Z,6.97
2018-01-22T07:59:13.443Z,9.67
2018-01-22T08:01:41.725Z,8.33
2018-01-22T08:04:09.296Z,9.83
2018-01-22T08:06:37.568Z,7.20
2018-01-22T08:09:05.156Z,6.50
2018-01-22T08:11:32.659Z,7.13
2018-01-22T08:14:00.216Z,6.20
2018-01-22T08:16:28.495Z,5.53
2018-01-22T08:18:56.807Z,6.20
2018-01-22T08:21:24.324Z,7.73
2018-01-22T08:23:51.863Z,7.47
2018-01-22T08:26:19.384Z,7.83
2018-01-22T08:28:46.943Z,8.30
2018-01-22T08:31:14.451Z,7.63
2018-01-22T08:33:42.771Z,6.77
2018-01-22T08:36:10.285Z,9.37
2018-01-22T08:38:37.855Z,10.20
2018-01-22T08:41:05.374Z,9.83
2018-01-22T08:43:32.905Z,8.27
2018-01-22T08:46:00.448Z,9.27
2018-01-22T08:48:27.971Z,9.57
2018-01-22T08:50:56.287Z,8.20
2018-01-22T08:53:23.816Z,9.97
2018-01-22T08:55:51.369Z,8.90
2018-01-22T08:58:18.880Z,9.90
2018-01-22T09:00:47.191Z,8.70
2018-01-22T09:03:14.703Z,7.77
2018-01-22T09:05:42.275Z,8.40
2018-01-22T09:08:09.783Z,7.30
2018-01-22T09:10:38.095Z,9.27
2018-01-22T09:13:05.621Z,9.20
2018-01-22T09:15:33.172Z,7.00
2018-01-22T09:18:00.691Z,11.03
2018-01-22T09:20:28.966Z,7.50
2018-01-22T09:22:56.521Z,7.17
2018-01-22T09:25:24.028Z,9.00
2018-01-22T09:27:52.340Z,7.07
2018-01-22T09:30:19.847Z,7.00
2018-01-22T09:32:47.393Z,6.93
2018-01-22T09:35:14.912Z,12.77
2018-01-22T09:37:42.463Z,8.83
2018-01-22T09:40:09.971Z,10.07
2018-01-22T09:42:38.283Z,6.23
2018-01-22T09:45:05.803Z,11.57
2018-01-22T09:47:33.371Z,7.90
2018-01-22T09:50:00.879Z,6.93
2018-01-22T09:52:29.156Z,8.63
2018-01-22T09:54:56.704Z,7.73
2018-01-22T09:57:24.208Z,9.07
2018-01-22T09:59:52.519Z,6.93
2018-01-22T10:02:20.027Z,9.73
2018-01-22T10:04:47.571Z,6.70
2018-01-22T10:07:15.080Z,10.27
2018-01-22T10:09:42.621Z,7.60
2018-01-22T10:12:10.123Z,7.40
2018-01-22T10:14:37.666Z,9.70
2018-01-22T10:17:05.180Z,6.87
2018-01-22T10:19:32.748Z,11.53
2018-01-22T10:22:00.274Z,11.17
2018-01-22T10:24:27.798Z,8.00
2018-01-22T10:26:55.348Z,7.10
2018-01-22T10:29:22.879Z,12.43
2018-01-22T10:31:50.427Z,8.40
2018-01-22T10:34:18.714Z,11.70
2018-01-22T10:36:47.035Z,12.40
2018-01-22T10:39:14.580Z,10.90
2018-01-22T10:41:42.146Z,11.17
2018-01-22T10:44:09.670Z,12.67
2018-01-22T10:46:37.223Z,12.97
2018-01-22T10:49:04.739Z,12.60
2018-01-22T10:51:32.280Z,14.47
2018-01-22T10:53:59.797Z,11.80
2018-01-22T10:56:27.320Z,11.97
2018-01-22T10:58:54.876Z,12.60
2018-01-22T11:01:22.388Z,8.63
2018-01-22T11:03:49.935Z,16.33
2018-01-22T11:06:17.452Z,14.27
2018-01-22T11:08:45.002Z,14.60
2018-01-22T11:11:12.516Z,11.00
2018-01-22T11:13:40.828Z,17.40
2018-01-22T11:16:10.300Z,10.83
2018-01-22T11:18:37.852Z,16.13
2018-01-22T11:21:05.370Z,13.40
2018-01-22T11:23:33.675Z,15.40
2018-01-22T11:26:01.224Z,18.47
2018-01-22T11:28:29.508Z,18.00
2018-01-22T11:30:57.060Z,22.13
2018-01-22T11:33:24.584Z,17.63
2018-01-22T11:35:52.140Z,22.10
2018-01-22T11:38:21.102Z,23.20
2018-01-22T11:40:48.653Z,22.67
2018-01-22T11:43:16.168Z,19.03
2018-01-22T11:45:43.735Z,15.07
2018-01-22T11:48:11.268Z,18.40
2018-01-22T11:50:38.788Z,18.67
2018-01-22T11:53:06.343Z,16.90
2018-01-22T11:55:33.851Z,20.07
2018-01-22T11:58:01.432Z,16.90
2018-01-22T12:00:28.953Z,13.40
2018-01-22T12:02:56.607Z,23.40
2018-01-22T12:05:24.130Z,20.80
2018-01-22T12:07:51.679Z,24.27
2018-01-22T12:10:19.201Z,15.90
2018-01-22T12:12:46.749Z,19.90
2018-01-22T12:15:15.044Z,21.53
2018-01-22T12:17:42.558Z,16.23
2018-01-22T12:20:10.106Z,22.93
2018-01-22T12:22:37.634Z,21.60
2018-01-22T12:25:05.195Z,19.90
2018-01-22T12:27:32.733Z,19.67
2018-01-22T12:30:00.289Z,26.90
2018-01-22T12:32:27.799Z,21.67
2018-01-22T12:34:55.343Z,18.67
2018-01-22T12:37:22.859Z,20.00
2018-01-22T12:39:50.359Z,22.57
2018-01-22T12:42:18.700Z,15.20
2018-01-22T12:44:46.253Z,17.20
2018-01-22T12:47:13.800Z,23.07
2018-01-22T12:49:42.110Z,14.17
2018-01-22T12:52:09.659Z,17.50
2018-01-22T12:54:37.948Z,16.03
2018-01-22T12:57:06.280Z,27.20
2018-01-22T12:59:33.812Z,28.90
2018-01-22T13:02:02.135Z,20.20
2018-01-22T13:04:29.658Z,17.37
2018-01-22T13:06:57.217Z,20.80
2018-01-22T13:09:24.756Z,16.63
2018-01-22T13:11:52.267Z,19.67
2018-01-22T13:14:19.898Z,19.40
2018-01-22T13:16:47.432Z,13.70
2018-01-22T13:19:14.975Z,19.13
2018-01-22T13:21:42.499Z,13.03
2018-01-22T13:24:10.044Z,25.13
2018-01-22T13:26:38.348Z,12.93
2018-01-22T13:29:06.667Z,17.33
2018-01-22T13:31:34.181Z,20.73
2018-01-22T13:34:01.746Z,21.47
2018-01-22T13:36:29.261Z,18.57
2018-01-22T13:38:57.580Z,17.67
2018-01-22T13:41:25.104Z,19.83
2018-01-22T13:43:52.660Z,11.93
2018-01-22T13:46:20.180Z,21.57
2018-01-22T13:48:47.760Z,23.17
2018-01-22T13:51:15.285Z,32.47
2018-01-22T13:53:44.023Z,19.77
2018-01-22T13:56:11.543Z,18.30
2018-01-22T13:58:39.067Z,21.73
2018-01-22T14:01:06.628Z,16.40
2018-01-22T14:03:34.159Z,20.57
2018-01-22T14:06:01.741Z,14.20
2018-01-22T14:08:29.271Z,16.57
2018-01-22T14:10:56.816Z,16.07
2018-01-22T14:13:24.339Z,15.70
2018-01-22T14:15:51.917Z,20.33
2018-01-22T14:18:19.423Z,14.97
2018-01-22T14:20:47.756Z,14.17
2018-01-22T14:23:15.273Z,16.03
2018-01-22T14:25:43.569Z,21.20
2018-01-22T14:28:11.971Z,19.10
2018-01-22T14:30:40.256Z,16.00
2018-01-22T14:33:07.800Z,12.80
2018-01-22T14:35:35.331Z,21.07
2018-01-22T14:38:02.889Z,18.63
2018-01-22T14:40:30.408Z,10.67
2018-01-22T14:42:57.952Z,11.43
2018-01-22T14:45:25.488Z,12.13
2018-01-22T14:47:54.988Z,22.87
2018-01-22T14:50:23.269Z,8.90
2018-01-22T14:52:50.832Z,16.50
2018-01-22T14:55:18.363Z,22.97
2018-01-22T14:57:45.927Z,14.60
2018-01-22T15:00:13.457Z,12.37
2018-01-22T15:02:41.010Z,13.37
2018-01-22T15:05:08.551Z,11.73
2018-01-22T15:07:36.077Z,10.73
2018-01-22T15:10:03.639Z,18.80
2018-01-22T15:12:31.161Z,22.20
2018-01-22T15:14:58.717Z,13.93
2018-01-22T15:17:26.238Z,21.93
2018-01-22T15:19:53.800Z,17.60
2018-01-22T15:22:21.383Z,30.30
2018-01-22T15:24:49.437Z,28.03
2018-01-22T15:27:17.000Z,27.80
2018-01-22T15:29:44.532Z,21.97
2018-01-22T15:32:12.162Z,26.47
2018-01-22T15:34:39.732Z,18.00
2018-01-22T15:37:07.370Z,24.37
2018-01-22T15:39:34.896Z,21.73
2018-01-22T15:42:02.496Z,27.77
2018-01-22T15:44:30.033Z,18.20
2018-01-22T15:46:57.612Z,16.13
2018-01-22T15:49:25.197Z,25.10
2018-01-22T15:51:52.792Z,31.47
2018-01-22T15:54:20.334Z,21.33
2018-01-22T15:56:48.027Z,22.33
2018-01-22T15:59:15.609Z,21.87
2018-01-22T16:01:43.131Z,15.63
2018-01-22T16:04:10.698Z,20.60
2018-01-22T16:06:38.237Z,17.80
2018-01-22T16:09:05.794Z,25.27
2018-01-22T16:11:33.319Z,20.33
2018-01-22T16:14:00.870Z,21.30
2018-01-22T16:16:29.156Z,16.87
2018-01-22T16:18:57.477Z,21.10
2018-01-22T16:21:25.001Z,23.60
2018-01-22T16:23:52.547Z,28.87
2018-01-22T16:26:20.064Z,23.70
2018-01-22T16:28:48.377Z,16.27
2018-01-22T16:31:15.892Z,16.13
2018-01-22T16:33:43.440Z,16.40
2018-01-22T16:36:10.970Z,25.13
2018-01-22T16:38:39.291Z,22.17
2018-01-22T16:41:06.808Z,23.37
2018-01-22T16:43:34.422Z,15.20
2018-01-22T16:46:01.940Z,17.67
2018-01-22T16:48:29.463Z,20.97
2018-01-22T16:50:57.026Z,20.97
2018-01-22T16:53:24.575Z,21.13
2018-01-22T16:55:52.171Z,25.30
2018-01-22T16:58:20.447Z,23.33
2018-01-22T17:00:47.996Z,27.63
2018-01-22T17:03:15.517Z,23.90
2018-01-22T17:05:43.069Z,32.67
2018-01-22T17:08:10.585Z,26.90
2018-01-22T17:10:38.206Z,20.00
2018-01-22T17:13:05.771Z,32.37
2018-01-22T17:15:33.335Z,38.63
2018-01-22T17:18:00.853Z,21.20
2018-01-22T17:20:28.384Z,22.23
2018-01-22T17:22:55.935Z,25.63
2018-01-22T17:25:23.444Z,28.40
2018-01-22T17:27:50.995Z,27.10
2018-01-22T17:30:18.504Z,24.73
2018-01-22T17:32:46.834Z,17.37
2018-01-22T17:35:14.367Z,23.50
2018-01-22T17:37:42.675Z,14.73
2018-01-22T17:40:10.188Z,23.30
2018-01-22T17:42:37.742Z,25.30
2018-01-22T17:45:05.264Z,26.87
2018-01-22T17:47:33.576Z,24.03
2018-01-22T17:50:01.095Z,19.00
2018-01-22T17:52:29.484Z,33.73
2018-01-22T17:54:57.027Z,32.90
2018-01-22T17:57:24.591Z,13.47
2018-01-22T17:59:52.125Z,21.37
2018-01-22T18:02:20.474Z,18.57
2018-01-22T18:04:48.028Z,32.57
2018-01-22T18:07:15.548Z,22.57
2018-01-22T18:09:43.113Z,23.93
2018-01-22T18:12:10.631Z,30.00
2018-01-22T18:14:38.184Z,24.27
2018-01-22T18:17:06.466Z,28.07
2018-01-22T18:19:34.028Z,20.77
2018-01-22T18:22:01.548Z,23.33
2018-01-22T18:24:29.099Z,18.03
2018-01-22T18:26:56.635Z,27.83
2018-01-22T18:29:24.179Z,28.50
2018-01-22T18:31:51.716Z,24.63
2018-01-22T18:34:20.036Z,29.37
2018-01-22T18:36:47.559Z,30.97
2018-01-22T18:39:15.131Z,29.53
2018-01-22T18:41:42.650Z,22.87
2018-01-22T18:44:10.164Z,23.20
2018-01-22T18:46:37.726Z,37.27
2018-01-22T18:49:05.338Z,23.87
2018-01-22T18:51:33.651Z,30.70
2018-01-22T18:54:01.171Z,29.80
2018-01-22T18:56:28.719Z,23.63
2018-01-22T18:58:56.241Z,33.00
2018-01-22T19:01:24.559Z,28.27
2018-01-22T19:03:52.075Z,27.87
2018-01-22T19:06:19.628Z,38.03
2018-01-22T19:08:47.147Z,39.43
2018-01-22T19:11:15.486Z,34.83
2018-01-22T19:13:43.017Z,30.77
2018-01-22T19:16:10.533Z,24.53
2018-01-22T19:18:38.090Z,16.30
2018-01-22T19:21:05.604Z,31.43
2018-01-22T19:23:33.163Z,31.83
2018-01-22T19:26:00.680Z,29.83
2018-01-22T19:28:28.353Z,25.80
2018-01-22T19:30:55.877Z,27.67
2018-01-22T19:33:23.425Z,27.33
2018-01-22T19:35:50.964Z,23.17
2018-01-22T19:38:18.528Z,24.13
2018-01-22T19:40:46.820Z,25.50
2018-01-22T19:43:15.141Z,21.47
2018-01-22T19:45:42.676Z,38.10
2018-01-22T19:48:11.008Z,32.80
2018-01-22T19:50:38.534Z,36.13
2018-01-22T19:53:06.089Z,34.63
2018-01-22T19:55:33.688Z,21.93
2018-01-22T19:58:02.047Z,23.13
2018-01-22T20:00:29.596Z,26.17
2018-01-22T20:02:57.110Z,24.87
2018-01-22T20:05:24.670Z,20.47
2018-01-22T20:07:52.200Z,28.53
2018-01-22T20:10:19.756Z,23.03
2018-01-22T20:12:47.296Z,24.87
2018-01-22T20:15:15.640Z,31.13
2018-01-22T20:17:43.213Z,33.67
2018-01-22T20:20:11.503Z,35.03
2018-01-22T20:22:39.025Z,31.90
2018-01-22T20:25:06.571Z,33.50
2018-01-22T20:27:34.092Z,32.60
2018-01-22T20:30:02.429Z,35.60
2018-01-22T20:32:29.984Z,25.87
2018-01-22T20:34:57.506Z,27.67
2018-01-22T20:37:25.833Z,34.90
2018-01-22T20:39:53.540Z,52.90
2018-01-22T20:42:21.115Z,28.83
2018-01-22T20:44:49.405Z,40.07
2018-01-22T20:47:16.968Z,36.15
2018-01-22T20:49:44.500Z,40.63
2018-01-22T20:52:12.060Z,41.67
2018-01-22T20:54:39.572Z,35.83
2018-01-22T20:57:07.149Z,37.90
2018-01-22T20:59:34.661Z,48.13
2018-01-22T21:02:02.232Z,39.03
2018-01-22T21:04:29.744Z,34.50
2018-01-22T21:06:57.255Z,34.90
2018-01-22T21:09:24.821Z,47.17
2018-01-22T21:11:52.344Z,31.60
2018-01-22T21:14:19.903Z,31.97
2018-01-22T21:16:48.188Z,32.53
2018-01-22T21:19:15.747Z,23.23
2018-01-22T21:21:43.275Z,36.80
2018-01-22T21:24:10.859Z,46.40
2018-01-22T21:26:38.371Z,52.17
2018-01-22T21:29:05.887Z,31.10
2018-01-22T21:31:33.444Z,36.57
2018-01-22T21:34:01.724Z,37.93
2018-01-22T21:36:30.061Z,33.40
2018-01-22T21:38:57.588Z,41.10
2018-01-22T21:41:25.918Z,40.63
2018-01-22T21:43:53.441Z,30.43
2018-01-22T21:46:21.780Z,29.43
2018-01-22T21:48:49.311Z,25.03
2018-01-22T21:51:17.627Z,34.53
2018-01-22T21:53:45.176Z,27.23
2018-01-22T21:56:13.496Z,37.23
2018-01-22T21:58:41.003Z,37.70
2018-01-22T22:01:08.557Z,33.17
2018-01-22T22:03:36.103Z,31.77
2018-01-22T22:06:03.635Z,39.00
2018-01-22T22:08:31.183Z,36.57
2018-01-22T22:10:58.700Z,33.93
2018-01-22T22:13:27.071Z,29.77
2018-01-22T22:15:54.592Z,15.70
2018-01-22T22:18:22.159Z,31.20
2018-01-22T22:20:49.672Z,32.20
2018-01-22T22:23:17.244Z,32.73
2018-01-22T22:25:44.755Z,24.50
2018-01-22T22:28:13.035Z,23.50
2018-01-22T22:30:41.353Z,32.60
2018-01-22T22:33:08.869Z,25.40
2018-01-22T22:35:36.416Z,38.73
2018-01-22T22:38:03.923Z,35.83
2018-01-22T22:40:31.480Z,35.20
2018-01-22T22:42:58.988Z,54.47
2018-01-22T22:45:27.309Z,35.70
2018-01-22T22:47:54.813Z,36.80
2018-01-22T22:50:22.363Z,29.33
2018-01-22T22:52:49.871Z,34.57
2018-01-22T22:55:17.707Z,26.60
2018-01-22T22:57:45.211Z,35.83
2018-01-22T23:00:14.543Z,31.73
2018-01-22T23:02:42.099Z,56.87
2018-01-22T23:05:09.629Z,31.47
2018-01-22T23:07:37.194Z,32.87
2018-01-22T23:10:04.717Z,25.20
2018-01-22T23:12:32.859Z,47.13
2018-01-22T23:15:00.385Z,45.03
2018-01-22T23:17:27.940Z,44.13
2018-01-22T23:19:55.457Z,27.47
2018-01-22T23:22:23.778Z,37.77
2018-01-22T23:24:51.296Z,50.10
2018-01-22T23:27:18.844Z,36.20
2018-01-22T23:29:46.361Z,31.53
2018-01-22T23:32:13.932Z,35.03
2018-01-22T23:34:41.447Z,37.00
2018-01-22T23:37:08.955Z,29.47
2018-01-22T23:39:36.507Z,41.07
2018-01-22T23:42:04.013Z,36.87
2018-01-22T23:44:31.563Z,45.07
2018-01-22T23:46:59.088Z,37.63
2018-01-22T23:49:26.631Z,45.10
2018-01-22T23:51:54.924Z,38.30
2018-01-22T23:54:23.244Z,38.30
2018-01-22T23:56:50.761Z,29.77
2018-01-22T23:59:18.306Z,40.57
